sensor_id;sensor_type;location;lat;lon;timestamp;temperature;humidity
26599;DHT22;14240;51.064;16.612;2023-03-11T00:01:05;9.30;99.90
26599;DHT22;14240;51.064;16.612;2023-03-11T00:03:30;9.30;99.90
26599;DHT22;14240;51.064;16.612;2023-03-11T00:06:00;9.30;99.90
26599;DHT22;14240;51.064;16.612;2023-03-11T00:08:26;9.30;99.90
26599;DHT22;14240;51.064;16.612;2023-03-11T00:10:57;9.20;99.90
26599;DHT22;14240;51.064;16.612;2023-03-11T00:13:25;9.30;99.90
26599;DHT22;14240;51.064;16.612;2023-03-11T00:15:53;9.20;99.90
26599;DHT22;14240;51.064;16.612;2023-03-11T00:18:23;9.20;99.90
26599;DHT22;14240;51.064;16.612;2023-03-11T00:20:51;9.20;99.90
26599;DHT22;14240;51.064;16.612;2023-03-11T00:23:17;9.20;99.90
26599;DHT22;14240;51.064;16.612;2023-03-11T00:25:44;9.20;99.90
26599;DHT22;14240;51.064;16.612;2023-03-11T00:28:11;9.10;99.90
26599;DHT22;14240;51.064;16.612;2023-03-11T00:30:39;9.10;99.90
26599;DHT22;14240;51.064;16.612;2023-03-11T00:33:05;9.10;99.90
26599;DHT22;14240;51.064;16.612;2023-03-11T00:35:32;9.00;99.90
26599;DHT22;14240;51.064;16.612;2023-03-11T00:38:01;9.00;99.90
26599;DHT22;14240;51.064;16.612;2023-03-11T00:40:30;9.00;99.90
26599;DHT22;14240;51.064;16.612;2023-03-11T00:42:57;8.90;99.90
26599;DHT22;14240;51.064;16.612;2023-03-11T00:45:23;8.90;99.90
26599;DHT22;14240;51.064;16.612;2023-03-11T00:47:50;8.80;99.90
26599;DHT22;14240;51.064;16.612;2023-03-11T00:50:19;8.80;99.90
26599;DHT22;14240;51.064;16.612;2023-03-11T00:52:46;8.80;99.90
26599;DHT22;14240;51.064;16.612;2023-03-11T00:55:15;8.70;99.90
26599;DHT22;14240;51.064;16.612;2023-03-11T00:57:41;8.70;99.90
26599;DHT22;14240;51.064;16.612;2023-03-11T01:00:11;8.60;99.90
26599;DHT22;14240;51.064;16.612;2023-03-11T01:02:37;8.60;99.90
26599;DHT22;14240;51.064;16.612;2023-03-11T01:05:04;8.50;99.90
26599;DHT22;14240;51.064;16.612;2023-03-11T01:07:30;8.50;99.90
26599;DHT22;14240;51.064;16.612;2023-03-11T01:09:58;7.80;99.90
26599;DHT22;14240;51.064;16.612;2023-03-11T01:12:24;8.40;99.90
26599;DHT22;14240;51.064;16.612;2023-03-11T01:14:49;8.40;99.90
26599;DHT22;14240;51.064;16.612;2023-03-11T01:17:15;8.40;99.90
26599;DHT22;14240;51.064;16.612;2023-03-11T01:19:41;8.30;99.90
26599;DHT22;14240;51.064;16.612;2023-03-11T01:22:06;8.30;99.90
26599;DHT22;14240;51.064;16.612;2023-03-11T01:24:32;8.20;99.90
26599;DHT22;14240;51.064;16.612;2023-03-11T01:26:58;8.20;99.90
26599;DHT22;14240;51.064;16.612;2023-03-11T01:29:24;8.20;99.90
26599;DHT22;14240;51.064;16.612;2023-03-11T01:31:49;8.20;99.90
26599;DHT22;14240;51.064;16.612;2023-03-11T01:34:15;8.20;99.90
26599;DHT22;14240;51.064;16.612;2023-03-11T01:36:41;8.10;99.90
26599;DHT22;14240;51.064;16.612;2023-03-11T01:39:07;8.10;99.90
26599;DHT22;14240;51.064;16.612;2023-03-11T01:41:32;8.10;99.90
26599;DHT22;14240;51.064;16.612;2023-03-11T01:43:58;8.10;99.90
26599;DHT22;14240;51.064;16.612;2023-03-11T01:46:32;8.10;99.90
26599;DHT22;14240;51.064;16.612;2023-03-11T01:48:59;8.00;99.90
26599;DHT22;14240;51.064;16.612;2023-03-11T01:51:32;8.00;99.90
26599;DHT22;14240;51.064;16.612;2023-03-11T01:54:04;8.00;99.90
26599;DHT22;14240;51.064;16.612;2023-03-11T01:56:32;8.00;99.90
26599;DHT22;14240;51.064;16.612;2023-03-11T01:58:58;7.90;99.90
26599;DHT22;14240;51.064;16.612;2023-03-11T02:01:24;7.90;99.90
26599;DHT22;14240;51.064;16.612;2023-03-11T02:03:50;7.90;99.90
26599;DHT22;14240;51.064;16.612;2023-03-11T02:06:20;7.90;99.90
26599;DHT22;14240;51.064;16.612;2023-03-11T02:08:47;7.80;99.90
26599;DHT22;14240;51.064;16.612;2023-03-11T02:11:20;7.80;99.90
26599;DHT22;14240;51.064;16.612;2023-03-11T02:13:47;7.80;99.90
26599;DHT22;14240;51.064;16.612;2023-03-11T02:16:13;7.80;99.90
26599;DHT22;14240;51.064;16.612;2023-03-11T02:18:42;7.80;99.90
26599;DHT22;14240;51.064;16.612;2023-03-11T02:21:25;7.70;99.90
26599;DHT22;14240;51.064;16.612;2023-03-11T02:29:13;7.70;99.90
26599;DHT22;14240;51.064;16.612;2023-03-11T02:31:40;7.70;99.90
26599;DHT22;14240;51.064;16.612;2023-03-11T02:34:13;7.70;99.90
26599;DHT22;14240;51.064;16.612;2023-03-11T02:36:42;7.70;99.90
26599;DHT22;14240;51.064;16.612;2023-03-11T02:39:08;7.60;99.90
26599;DHT22;14240;51.064;16.612;2023-03-11T02:41:37;7.60;99.90
26599;DHT22;14240;51.064;16.612;2023-03-11T02:44:07;7.60;99.90
26599;DHT22;14240;51.064;16.612;2023-03-11T02:46:35;7.50;99.90
26599;DHT22;14240;51.064;16.612;2023-03-11T02:49:01;7.30;99.90
26599;DHT22;14240;51.064;16.612;2023-03-11T02:51:27;7.00;99.90
26599;DHT22;14240;51.064;16.612;2023-03-11T02:53:57;6.70;99.90
26599;DHT22;14240;51.064;16.612;2023-03-11T02:56:24;6.50;99.90
26599;DHT22;14240;51.064;16.612;2023-03-11T02:58:50;6.30;99.90
26599;DHT22;14240;51.064;16.612;2023-03-11T03:01:15;6.20;99.90
26599;DHT22;14240;51.064;16.612;2023-03-11T03:03:41;6.10;99.90
26599;DHT22;14240;51.064;16.612;2023-03-11T03:06:07;6.00;99.90
26599;DHT22;14240;51.064;16.612;2023-03-11T03:08:32;5.90;99.90
26599;DHT22;14240;51.064;16.612;2023-03-11T03:10:58;5.80;99.90
26599;DHT22;14240;51.064;16.612;2023-03-11T03:13:25;5.70;99.90
26599;DHT22;14240;51.064;16.612;2023-03-11T03:15:51;5.60;99.90
26599;DHT22;14240;51.064;16.612;2023-03-11T03:18:17;5.60;99.90
26599;DHT22;14240;51.064;16.612;2023-03-11T03:20:43;5.50;99.90
26599;DHT22;14240;51.064;16.612;2023-03-11T03:23:09;5.40;99.90
26599;DHT22;14240;51.064;16.612;2023-03-11T03:25:35;5.40;99.90
26599;DHT22;14240;51.064;16.612;2023-03-11T03:28:00;5.30;99.90
26599;DHT22;14240;51.064;16.612;2023-03-11T03:30:26;5.30;99.90
26599;DHT22;14240;51.064;16.612;2023-03-11T03:32:54;5.20;99.90
26599;DHT22;14240;51.064;16.612;2023-03-11T03:35:20;5.20;99.90
26599;DHT22;14240;51.064;16.612;2023-03-11T03:37:46;5.10;99.90
26599;DHT22;14240;51.064;16.612;2023-03-11T03:40:12;5.10;99.90
26599;DHT22;14240;51.064;16.612;2023-03-11T03:42:38;5.00;99.90
26599;DHT22;14240;51.064;16.612;2023-03-11T03:45:06;4.90;99.90
26599;DHT22;14240;51.064;16.612;2023-03-11T03:47:33;4.90;99.90
26599;DHT22;14240;51.064;16.612;2023-03-11T03:49:59;4.80;99.90
26599;DHT22;14240;51.064;16.612;2023-03-11T03:52:24;4.80;99.90
26599;DHT22;14240;51.064;16.612;2023-03-11T03:54:50;4.70;99.90
26599;DHT22;14240;51.064;16.612;2023-03-11T03:57:16;4.60;99.90
26599;DHT22;14240;51.064;16.612;2023-03-11T03:59:42;4.60;99.90
26599;DHT22;14240;51.064;16.612;2023-03-11T04:02:07;4.50;99.90
26599;DHT22;14240;51.064;16.612;2023-03-11T04:04:33;4.40;99.90
26599;DHT22;14240;51.064;16.612;2023-03-11T04:06:59;4.40;99.90
26599;DHT22;14240;51.064;16.612;2023-03-11T04:09:25;4.30;99.90
26599;DHT22;14240;51.064;16.612;2023-03-11T04:11:51;4.30;99.90
26599;DHT22;14240;51.064;16.612;2023-03-11T04:14:17;4.20;99.90
26599;DHT22;14240;51.064;16.612;2023-03-11T04:16:42;4.10;99.90
26599;DHT22;14240;51.064;16.612;2023-03-11T04:19:08;4.10;99.90
26599;DHT22;14240;51.064;16.612;2023-03-11T04:21:34;4.10;99.90
26599;DHT22;14240;51.064;16.612;2023-03-11T04:24:00;4.00;99.90
26599;DHT22;14240;51.064;16.612;2023-03-11T04:26:26;4.00;99.90
26599;DHT22;14240;51.064;16.612;2023-03-11T04:28:52;4.00;99.90
26599;DHT22;14240;51.064;16.612;2023-03-11T04:31:18;3.90;99.90
26599;DHT22;14240;51.064;16.612;2023-03-11T04:33:44;3.90;99.90
26599;DHT22;14240;51.064;16.612;2023-03-11T04:36:11;3.90;99.90
26599;DHT22;14240;51.064;16.612;2023-03-11T04:38:37;3.80;99.90
26599;DHT22;14240;51.064;16.612;2023-03-11T04:41:04;3.80;99.90
26599;DHT22;14240;51.064;16.612;2023-03-11T04:43:30;3.80;99.90
26599;DHT22;14240;51.064;16.612;2023-03-11T04:45:56;3.70;99.90
26599;DHT22;14240;51.064;16.612;2023-03-11T04:48:21;3.70;99.90
26599;DHT22;14240;51.064;16.612;2023-03-11T04:50:49;3.60;99.90
26599;DHT22;14240;51.064;16.612;2023-03-11T04:53:15;3.60;99.90
26599;DHT22;14240;51.064;16.612;2023-03-11T04:55:40;3.60;99.90
26599;DHT22;14240;51.064;16.612;2023-03-11T04:58:06;3.60;99.90
26599;DHT22;14240;51.064;16.612;2023-03-11T05:00:32;3.60;99.90
26599;DHT22;14240;51.064;16.612;2023-03-11T05:02:57;3.50;99.90
26599;DHT22;14240;51.064;16.612;2023-03-11T05:05:23;3.50;99.90
26599;DHT22;14240;51.064;16.612;2023-03-11T05:07:49;3.50;99.90
26599;DHT22;14240;51.064;16.612;2023-03-11T05:10:15;3.50;99.90
26599;DHT22;14240;51.064;16.612;2023-03-11T05:12:48;3.50;99.90
26599;DHT22;14240;51.064;16.612;2023-03-11T05:15:13;3.50;99.90
26599;DHT22;14240;51.064;16.612;2023-03-11T05:17:39;3.40;99.90
26599;DHT22;14240;51.064;16.612;2023-03-11T05:20:05;3.40;99.90
26599;DHT22;14240;51.064;16.612;2023-03-11T05:22:32;3.40;99.90
26599;DHT22;14240;51.064;16.612;2023-03-11T05:24:58;3.30;99.90
26599;DHT22;14240;51.064;16.612;2023-03-11T05:27:24;3.30;99.90
26599;DHT22;14240;51.064;16.612;2023-03-11T05:29:50;3.20;99.90
26599;DHT22;14240;51.064;16.612;2023-03-11T05:32:16;3.20;99.90
26599;DHT22;14240;51.064;16.612;2023-03-11T05:34:44;3.10;99.90
26599;DHT22;14240;51.064;16.612;2023-03-11T05:37:10;3.10;99.90
26599;DHT22;14240;51.064;16.612;2023-03-11T05:39:36;3.10;99.90
26599;DHT22;14240;51.064;16.612;2023-03-11T05:42:03;3.10;99.90
26599;DHT22;14240;51.064;16.612;2023-03-11T05:44:29;3.00;99.90
26599;DHT22;14240;51.064;16.612;2023-03-11T05:46:55;3.00;99.90
26599;DHT22;14240;51.064;16.612;2023-03-11T05:49:20;2.90;99.90
26599;DHT22;14240;51.064;16.612;2023-03-11T05:51:47;2.90;99.90
26599;DHT22;14240;51.064;16.612;2023-03-11T05:54:13;2.90;99.90
26599;DHT22;14240;51.064;16.612;2023-03-11T05:56:43;2.80;99.90
26599;DHT22;14240;51.064;16.612;2023-03-11T05:59:10;2.80;99.90
26599;DHT22;14240;51.064;16.612;2023-03-11T06:01:36;2.70;99.90
26599;DHT22;14240;51.064;16.612;2023-03-11T06:04:02;2.70;99.90
26599;DHT22;14240;51.064;16.612;2023-03-11T06:06:28;2.70;99.90
26599;DHT22;14240;51.064;16.612;2023-03-11T06:08:54;2.60;99.90
26599;DHT22;14240;51.064;16.612;2023-03-11T06:11:20;2.60;99.90
26599;DHT22;14240;51.064;16.612;2023-03-11T06:13:52;2.60;99.90
26599;DHT22;14240;51.064;16.612;2023-03-11T06:16:19;2.50;99.90
26599;DHT22;14240;51.064;16.612;2023-03-11T06:18:45;2.50;99.90
26599;DHT22;14240;51.064;16.612;2023-03-11T06:21:17;2.40;99.90
26599;DHT22;14240;51.064;16.612;2023-03-11T06:23:43;2.40;99.90
26599;DHT22;14240;51.064;16.612;2023-03-11T06:26:12;2.40;99.90
26599;DHT22;14240;51.064;16.612;2023-03-11T06:28:38;2.30;99.90
26599;DHT22;14240;51.064;16.612;2023-03-11T06:31:15;2.30;99.90
26599;DHT22;14240;51.064;16.612;2023-03-11T06:33:42;2.20;99.90
26599;DHT22;14240;51.064;16.612;2023-03-11T06:36:08;2.10;99.90
26599;DHT22;14240;51.064;16.612;2023-03-11T06:38:35;2.10;99.90
26599;DHT22;14240;51.064;16.612;2023-03-11T06:41:02;2.00;99.90
26599;DHT22;14240;51.064;16.612;2023-03-11T06:43:29;2.00;99.90
26599;DHT22;14240;51.064;16.612;2023-03-11T06:45:59;2.00;99.90
26599;DHT22;14240;51.064;16.612;2023-03-11T06:48:25;1.90;99.90
26599;DHT22;14240;51.064;16.612;2023-03-11T06:50:55;1.90;99.90
26599;DHT22;14240;51.064;16.612;2023-03-11T06:53:21;1.80;99.90
26599;DHT22;14240;51.064;16.612;2023-03-11T06:56:08;1.80;99.90
26599;DHT22;14240;51.064;16.612;2023-03-11T06:58:35;1.80;99.90
26599;DHT22;14240;51.064;16.612;2023-03-11T07:01:23;1.80;99.90
26599;DHT22;14240;51.064;16.612;2023-03-11T07:03:48;1.70;99.90
26599;DHT22;14240;51.064;16.612;2023-03-11T07:06:16;1.70;99.90
26599;DHT22;14240;51.064;16.612;2023-03-11T07:08:43;1.70;99.90
26599;DHT22;14240;51.064;16.612;2023-03-11T07:11:15;1.70;99.90
26599;DHT22;14240;51.064;16.612;2023-03-11T07:13:41;1.70;99.90
26599;DHT22;14240;51.064;16.612;2023-03-11T07:16:19;1.60;99.90
26599;DHT22;14240;51.064;16.612;2023-03-11T07:18:45;1.60;99.90
26599;DHT22;14240;51.064;16.612;2023-03-11T07:21:13;1.60;99.90
26599;DHT22;14240;51.064;16.612;2023-03-11T07:23:39;1.60;99.90
26599;DHT22;14240;51.064;16.612;2023-03-11T07:26:08;1.60;99.90
26599;DHT22;14240;51.064;16.612;2023-03-11T07:28:34;1.50;99.90
26599;DHT22;14240;51.064;16.612;2023-03-11T07:31:11;1.50;99.90
26599;DHT22;14240;51.064;16.612;2023-03-11T07:33:37;1.50;99.90
26599;DHT22;14240;51.064;16.612;2023-03-11T07:36:15;1.50;99.90
26599;DHT22;14240;51.064;16.612;2023-03-11T07:38:42;1.50;99.90
26599;DHT22;14240;51.064;16.612;2023-03-11T07:41:08;1.50;99.90
26599;DHT22;14240;51.064;16.612;2023-03-11T07:43:35;1.50;99.90
26599;DHT22;14240;51.064;16.612;2023-03-11T07:46:15;1.50;99.90
26599;DHT22;14240;51.064;16.612;2023-03-11T07:48:43;1.40;99.90
26599;DHT22;14240;51.064;16.612;2023-03-11T07:51:18;1.40;99.90
26599;DHT22;14240;51.064;16.612;2023-03-11T07:53:44;1.40;99.90
26599;DHT22;14240;51.064;16.612;2023-03-11T07:56:12;1.40;99.90
26599;DHT22;14240;51.064;16.612;2023-03-11T07:58:38;1.40;99.90
26599;DHT22;14240;51.064;16.612;2023-03-11T08:01:06;1.40;99.90
26599;DHT22;14240;51.064;16.612;2023-03-11T08:03:33;1.40;99.90
26599;DHT22;14240;51.064;16.612;2023-03-11T08:05:59;1.40;99.90
26599;DHT22;14240;51.064;16.612;2023-03-11T08:08:24;1.40;99.90
26599;DHT22;14240;51.064;16.612;2023-03-11T08:10:50;1.50;99.90
26599;DHT22;14240;51.064;16.612;2023-03-11T08:13:16;1.50;99.90
26599;DHT22;14240;51.064;16.612;2023-03-11T08:15:42;1.50;99.90
26599;DHT22;14240;51.064;16.612;2023-03-11T08:18:07;1.40;99.90
26599;DHT22;14240;51.064;16.612;2023-03-11T08:20:33;1.50;99.90
26599;DHT22;14240;51.064;16.612;2023-03-11T08:23:00;1.40;99.90
26599;DHT22;14240;51.064;16.612;2023-03-11T08:25:26;1.40;99.90
26599;DHT22;14240;51.064;16.612;2023-03-11T08:27:51;1.50;99.90
26599;DHT22;14240;51.064;16.612;2023-03-11T08:30:17;1.50;99.90
26599;DHT22;14240;51.064;16.612;2023-03-11T08:32:43;1.50;99.90
26599;DHT22;14240;51.064;16.612;2023-03-11T08:35:09;1.50;99.90
26599;DHT22;14240;51.064;16.612;2023-03-11T08:37:35;1.50;99.90
26599;DHT22;14240;51.064;16.612;2023-03-11T08:40:01;1.50;99.90
26599;DHT22;14240;51.064;16.612;2023-03-11T08:42:27;1.50;99.90
26599;DHT22;14240;51.064;16.612;2023-03-11T08:44:52;1.50;99.90
26599;DHT22;14240;51.064;16.612;2023-03-11T08:47:18;1.50;99.90
26599;DHT22;14240;51.064;16.612;2023-03-11T08:49:44;1.50;99.90
26599;DHT22;14240;51.064;16.612;2023-03-11T08:52:09;1.50;99.90
26599;DHT22;14240;51.064;16.612;2023-03-11T08:54:35;1.50;99.90
26599;DHT22;14240;51.064;16.612;2023-03-11T08:57:01;1.50;99.90
26599;DHT22;14240;51.064;16.612;2023-03-11T08:59:29;1.50;99.90
26599;DHT22;14240;51.064;16.612;2023-03-11T09:01:55;1.60;99.90
26599;DHT22;14240;51.064;16.612;2023-03-11T09:04:21;1.60;99.90
26599;DHT22;14240;51.064;16.612;2023-03-11T09:06:47;1.60;99.90
26599;DHT22;14240;51.064;16.612;2023-03-11T09:09:15;1.60;99.90
26599;DHT22;14240;51.064;16.612;2023-03-11T09:11:43;1.70;99.90
26599;DHT22;14240;51.064;16.612;2023-03-11T09:14:09;1.60;99.90
26599;DHT22;14240;51.064;16.612;2023-03-11T09:16:35;1.60;99.90
26599;DHT22;14240;51.064;16.612;2023-03-11T09:19:00;1.60;99.90
26599;DHT22;14240;51.064;16.612;2023-03-11T09:21:31;1.60;99.90
26599;DHT22;14240;51.064;16.612;2023-03-11T09:23:58;1.60;99.90
26599;DHT22;14240;51.064;16.612;2023-03-11T09:26:24;1.60;99.90
26599;DHT22;14240;51.064;16.612;2023-03-11T09:28:50;1.70;99.90
26599;DHT22;14240;51.064;16.612;2023-03-11T09:31:16;1.80;99.90
26599;DHT22;14240;51.064;16.612;2023-03-11T09:33:42;1.80;99.90
26599;DHT22;14240;51.064;16.612;2023-03-11T09:36:14;1.80;99.90
26599;DHT22;14240;51.064;16.612;2023-03-11T09:38:41;1.80;99.90
26599;DHT22;14240;51.064;16.612;2023-03-11T09:49:06;1.80;99.90
26599;DHT22;14240;51.064;16.612;2023-03-11T09:51:42;1.90;99.90
26599;DHT22;14240;51.064;16.612;2023-03-11T09:54:12;1.90;99.90
26599;DHT22;14240;51.064;16.612;2023-03-11T09:56:39;1.90;99.90
26599;DHT22;14240;51.064;16.612;2023-03-11T09:59:32;1.90;99.90
26599;DHT22;14240;51.064;16.612;2023-03-11T10:02:01;2.00;99.90
26599;DHT22;14240;51.064;16.612;2023-03-11T10:04:33;2.00;99.90
26599;DHT22;14240;51.064;16.612;2023-03-11T10:07:05;2.00;99.90
26599;DHT22;14240;51.064;16.612;2023-03-11T10:09:53;2.00;99.90
26599;DHT22;14240;51.064;16.612;2023-03-11T10:26:27;2.10;99.90
26599;DHT22;14240;51.064;16.612;2023-03-11T10:29:10;2.20;99.90
26599;DHT22;14240;51.064;16.612;2023-03-11T10:37:02;2.20;99.90
26599;DHT22;14240;51.064;16.612;2023-03-11T10:39:31;2.10;99.90
26599;DHT22;14240;51.064;16.612;2023-03-11T10:42:05;2.10;99.90
26599;DHT22;14240;51.064;16.612;2023-03-11T10:44:40;2.10;99.90
26599;DHT22;14240;51.064;16.612;2023-03-11T10:47:12;2.20;99.90
26599;DHT22;14240;51.064;16.612;2023-03-11T10:49:39;2.30;99.90
26599;DHT22;14240;51.064;16.612;2023-03-11T10:52:05;2.50;99.90
26599;DHT22;14240;51.064;16.612;2023-03-11T10:54:37;2.60;99.90
26599;DHT22;14240;51.064;16.612;2023-03-11T10:57:31;2.70;99.90
26599;DHT22;14240;51.064;16.612;2023-03-11T11:00:03;2.80;99.90
26599;DHT22;14240;51.064;16.612;2023-03-11T11:02:53;2.80;99.90
26599;DHT22;14240;51.064;16.612;2023-03-11T11:05:33;2.80;99.90
26599;DHT22;14240;51.064;16.612;2023-03-11T11:08:18;2.90;99.90
26599;DHT22;14240;51.064;16.612;2023-03-11T11:10:55;3.00;99.90
26599;DHT22;14240;51.064;16.612;2023-03-11T11:13:23;3.00;99.90
26599;DHT22;14240;51.064;16.612;2023-03-11T11:21:16;3.30;99.90
26599;DHT22;14240;51.064;16.612;2023-03-11T11:26:28;3.50;99.90
26599;DHT22;14240;51.064;16.612;2023-03-11T11:31:39;3.40;99.90
26599;DHT22;14240;51.064;16.612;2023-03-11T11:34:28;3.50;99.90
26599;DHT22;14240;51.064;16.612;2023-03-11T11:36:56;3.60;99.90
26599;DHT22;14240;51.064;16.612;2023-03-11T11:39:25;3.70;99.90
26599;DHT22;14240;51.064;16.612;2023-03-11T11:41:52;3.70;99.90
26599;DHT22;14240;51.064;16.612;2023-03-11T11:44:21;3.70;99.90
26599;DHT22;14240;51.064;16.612;2023-03-11T11:46:58;3.70;99.90
26599;DHT22;14240;51.064;16.612;2023-03-11T11:49:28;3.70;99.90
26599;DHT22;14240;51.064;16.612;2023-03-11T11:52:05;3.70;99.90
26599;DHT22;14240;51.064;16.612;2023-03-11T11:54:52;3.70;99.90
26599;DHT22;14240;51.064;16.612;2023-03-11T11:57:20;3.70;99.90
26599;DHT22;14240;51.064;16.612;2023-03-11T11:59:47;3.60;99.90
26599;DHT22;14240;51.064;16.612;2023-03-11T12:05:16;3.60;99.90
26599;DHT22;14240;51.064;16.612;2023-03-11T12:08:02;3.60;99.90
26599;DHT22;14240;51.064;16.612;2023-03-11T12:15:58;3.80;99.90
26599;DHT22;14240;51.064;16.612;2023-03-11T12:22:03;3.70;99.90
26599;DHT22;14240;51.064;16.612;2023-03-11T12:27:33;3.20;99.90
26599;DHT22;14240;51.064;16.612;2023-03-11T12:30:04;3.00;99.90
26599;DHT22;14240;51.064;16.612;2023-03-11T12:32:37;2.90;99.90
26599;DHT22;14240;51.064;16.612;2023-03-11T12:35:22;2.60;99.90
26599;DHT22;14240;51.064;16.612;2023-03-11T12:38:00;2.40;99.90
26599;DHT22;14240;51.064;16.612;2023-03-11T12:46:05;2.40;99.90
26599;DHT22;14240;51.064;16.612;2023-03-11T12:48:47;2.50;99.90
26599;DHT22;14240;51.064;16.612;2023-03-11T12:53:51;2.80;99.90
26599;DHT22;14240;51.064;16.612;2023-03-11T12:56:39;2.90;99.90
26599;DHT22;14240;51.064;16.612;2023-03-11T13:07:40;3.10;99.90
26599;DHT22;14240;51.064;16.612;2023-03-11T13:12:49;2.80;99.90
26599;DHT22;14240;51.064;16.612;2023-03-11T13:18:13;2.70;99.90
26599;DHT22;14240;51.064;16.612;2023-03-11T13:33:54;2.90;99.90
26599;DHT22;14240;51.064;16.612;2023-03-11T13:36:48;2.80;99.90
26599;DHT22;14240;51.064;16.612;2023-03-11T13:39:36;2.70;99.90
26599;DHT22;14240;51.064;16.612;2023-03-11T13:44:49;2.50;99.90
26599;DHT22;14240;51.064;16.612;2023-03-11T13:47:17;2.50;99.90
26599;DHT22;14240;51.064;16.612;2023-03-11T13:50:00;2.50;99.90
26599;DHT22;14240;51.064;16.612;2023-03-11T13:52:32;2.60;99.90
26599;DHT22;14240;51.064;16.612;2023-03-11T13:55:05;2.50;99.90
26599;DHT22;14240;51.064;16.612;2023-03-11T13:57:34;2.60;99.90
26599;DHT22;14240;51.064;16.612;2023-03-11T14:00:09;2.60;99.90
26599;DHT22;14240;51.064;16.612;2023-03-11T14:02:46;2.70;99.90
26599;DHT22;14240;51.064;16.612;2023-03-11T14:05:37;2.70;99.90
26599;DHT22;14240;51.064;16.612;2023-03-11T14:13:23;2.70;99.90
26599;DHT22;14240;51.064;16.612;2023-03-11T14:15:59;2.70;99.90
26599;DHT22;14240;51.064;16.612;2023-03-11T14:18:38;2.70;99.90
26599;DHT22;14240;51.064;16.612;2023-03-11T14:21:05;2.70;99.90
26599;DHT22;14240;51.064;16.612;2023-03-11T14:23:39;2.70;99.90
26599;DHT22;14240;51.064;16.612;2023-03-11T14:26:08;2.70;99.90
26599;DHT22;14240;51.064;16.612;2023-03-11T14:28:39;2.60;99.90
26599;DHT22;14240;51.064;16.612;2023-03-11T14:31:05;2.60;99.90
26599;DHT22;14240;51.064;16.612;2023-03-11T14:33:31;2.60;99.90
26599;DHT22;14240;51.064;16.612;2023-03-11T14:36:00;2.70;99.90
26599;DHT22;14240;51.064;16.612;2023-03-11T14:38:29;2.70;99.90
26599;DHT22;14240;51.064;16.612;2023-03-11T14:41:05;2.80;99.90
26599;DHT22;14240;51.064;16.612;2023-03-11T14:43:37;2.80;99.90
26599;DHT22;14240;51.064;16.612;2023-03-11T14:46:05;2.80;99.90
26599;DHT22;14240;51.064;16.612;2023-03-11T14:48:39;2.80;99.90
26599;DHT22;14240;51.064;16.612;2023-03-11T14:51:16;2.80;99.90
26599;DHT22;14240;51.064;16.612;2023-03-11T14:53:46;2.80;99.90
26599;DHT22;14240;51.064;16.612;2023-03-11T14:56:17;2.90;99.90
26599;DHT22;14240;51.064;16.612;2023-03-11T14:59:29;2.80;99.90
26599;DHT22;14240;51.064;16.612;2023-03-11T15:01:40;2.90;99.90
26599;DHT22;14240;51.064;16.612;2023-03-11T15:06:54;2.80;99.90
26599;DHT22;14240;51.064;16.612;2023-03-11T15:09:22;2.80;99.90
26599;DHT22;14240;51.064;16.612;2023-03-11T15:11:57;2.70;99.90
26599;DHT22;14240;51.064;16.612;2023-03-11T15:14:29;2.70;99.90
26599;DHT22;14240;51.064;16.612;2023-03-11T15:17:18;2.70;99.90
26599;DHT22;14240;51.064;16.612;2023-03-11T15:19:46;2.70;99.90
26599;DHT22;14240;51.064;16.612;2023-03-11T15:22:33;2.60;99.90
26599;DHT22;14240;51.064;16.612;2023-03-11T15:25:01;2.60;99.90
26599;DHT22;14240;51.064;16.612;2023-03-11T15:27:37;2.70;99.90
26599;DHT22;14240;51.064;16.612;2023-03-11T15:30:19;2.70;99.90
26599;DHT22;14240;51.064;16.612;2023-03-11T15:32:46;2.80;99.90
26599;DHT22;14240;51.064;16.612;2023-03-11T15:35:16;2.80;99.90
26599;DHT22;14240;51.064;16.612;2023-03-11T15:37:43;2.90;99.90
26599;DHT22;14240;51.064;16.612;2023-03-11T15:40:28;2.80;99.90
26599;DHT22;14240;51.064;16.612;2023-03-11T15:43:59;2.80;99.90
26599;DHT22;14240;51.064;16.612;2023-03-11T15:46:09;2.80;99.90
26599;DHT22;14240;51.064;16.612;2023-03-11T15:48:35;2.80;99.90
26599;DHT22;14240;51.064;16.612;2023-03-11T15:51:01;2.90;99.90
26599;DHT22;14240;51.064;16.612;2023-03-11T15:53:28;2.80;99.90
26599;DHT22;14240;51.064;16.612;2023-03-11T15:55:57;2.80;99.90
26599;DHT22;14240;51.064;16.612;2023-03-11T15:58:25;2.80;99.90
26599;DHT22;14240;51.064;16.612;2023-03-11T16:00:54;2.80;99.90
26599;DHT22;14240;51.064;16.612;2023-03-11T16:03:21;2.80;99.90
26599;DHT22;14240;51.064;16.612;2023-03-11T16:05:47;2.80;99.90
26599;DHT22;14240;51.064;16.612;2023-03-11T16:08:13;2.80;99.90
26599;DHT22;14240;51.064;16.612;2023-03-11T16:10:39;2.80;99.90
26599;DHT22;14240;51.064;16.612;2023-03-11T16:13:06;2.80;99.90
26599;DHT22;14240;51.064;16.612;2023-03-11T16:15:35;2.70;99.90
26599;DHT22;14240;51.064;16.612;2023-03-11T16:18:03;2.70;99.90
26599;DHT22;14240;51.064;16.612;2023-03-11T16:20:35;2.70;99.90
26599;DHT22;14240;51.064;16.612;2023-03-11T16:23:01;2.70;99.90
26599;DHT22;14240;51.064;16.612;2023-03-11T16:25:37;2.70;99.90
26599;DHT22;14240;51.064;16.612;2023-03-11T16:28:04;2.70;99.90
26599;DHT22;14240;51.064;16.612;2023-03-11T16:30:32;2.60;99.90
26599;DHT22;14240;51.064;16.612;2023-03-11T16:32:59;2.60;99.90
26599;DHT22;14240;51.064;16.612;2023-03-11T16:35:25;2.70;99.90
26599;DHT22;14240;51.064;16.612;2023-03-11T16:37:52;2.60;99.90
26599;DHT22;14240;51.064;16.612;2023-03-11T16:40:21;2.60;99.90
26599;DHT22;14240;51.064;16.612;2023-03-11T16:42:50;2.60;99.90
26599;DHT22;14240;51.064;16.612;2023-03-11T16:45:18;2.60;99.90
26599;DHT22;14240;51.064;16.612;2023-03-11T16:47:44;2.60;99.90
26599;DHT22;14240;51.064;16.612;2023-03-11T16:50:10;2.70;99.90
26599;DHT22;14240;51.064;16.612;2023-03-11T16:52:37;2.90;99.90
26599;DHT22;14240;51.064;16.612;2023-03-11T16:55:03;3.00;99.90
26599;DHT22;14240;51.064;16.612;2023-03-11T16:57:29;3.00;99.90
26599;DHT22;14240;51.064;16.612;2023-03-11T16:59:54;2.90;99.90
26599;DHT22;14240;51.064;16.612;2023-03-11T17:02:20;2.90;99.90
26599;DHT22;14240;51.064;16.612;2023-03-11T17:04:46;2.80;99.90
26599;DHT22;14240;51.064;16.612;2023-03-11T17:07:12;2.70;99.90
26599;DHT22;14240;51.064;16.612;2023-03-11T17:09:38;2.70;99.90
26599;DHT22;14240;51.064;16.612;2023-03-11T17:12:04;2.70;99.90
26599;DHT22;14240;51.064;16.612;2023-03-11T17:14:30;2.60;99.90
26599;DHT22;14240;51.064;16.612;2023-03-11T17:16:57;2.60;99.90
26599;DHT22;14240;51.064;16.612;2023-03-11T17:19:23;2.60;99.90
26599;DHT22;14240;51.064;16.612;2023-03-11T17:21:49;2.50;99.90
26599;DHT22;14240;51.064;16.612;2023-03-11T17:24:15;2.50;99.90
26599;DHT22;14240;51.064;16.612;2023-03-11T17:26:41;2.50;99.90